createdAt,value
2022-10-20T00:04:18.264Z,2.90
2022-10-20T00:06:44.729Z,3.07
2022-10-20T00:09:11.426Z,3.30
2022-10-20T00:11:37.975Z,3.03
2022-10-20T00:14:04.674Z,3.30
2022-10-20T00:16:32.011Z,3.30
2022-10-20T00:18:58.498Z,2.60
2022-10-20T00:21:26.131Z,3.50
2022-10-20T00:23:52.659Z,3.27
2022-10-20T00:26:21.150Z,3.27
2022-10-20T00:28:47.683Z,3.30
2022-10-20T00:31:14.373Z,3.30
2022-10-20T00:33:40.851Z,3.53
2022-10-20T00:36:08.604Z,3.30
2022-10-20T00:38:35.256Z,3.70
2022-10-20T00:41:04.886Z,3.00
2022-10-20T00:43:46.028Z,3.23
2022-10-20T00:46:13.988Z,3.63
2022-10-20T00:48:40.798Z,2.83
2022-10-20T00:51:07.289Z,3.43
2022-10-20T00:53:34.245Z,3.50
2022-10-20T00:56:00.748Z,3.33
2022-10-20T00:58:27.310Z,3.30
2022-10-20T01:00:55.611Z,3.00
2022-10-20T01:03:25.011Z,3.43
2022-10-20T01:05:51.531Z,3.60
2022-10-20T01:08:17.998Z,3.67
2022-10-20T01:11:06.635Z,3.23
2022-10-20T01:13:51.240Z,3.07
2022-10-20T01:16:25.695Z,3.07
2022-10-20T01:19:18.159Z,3.73
2022-10-20T01:22:25.264Z,3.47
2022-10-20T01:24:51.629Z,3.13
2022-10-20T01:27:23.996Z,3.10
2022-10-20T01:29:55.561Z,3.97
2022-10-20T01:32:28.512Z,3.73
2022-10-20T01:34:54.895Z,3.07
2022-10-20T01:37:49.715Z,3.20
2022-10-20T01:40:24.812Z,3.20
2022-10-20T01:42:51.604Z,3.20
2022-10-20T01:45:18.711Z,3.30
2022-10-20T01:47:45.351Z,3.77
2022-10-20T01:50:11.860Z,3.53
2022-10-20T01:52:38.626Z,3.57
2022-10-20T01:55:12.917Z,2.93
2022-10-20T01:57:48.443Z,3.30
2022-10-20T02:00:15.516Z,3.50
2022-10-20T02:02:57.604Z,3.27
2022-10-20T02:05:42.368Z,3.30
2022-10-20T02:09:07.559Z,3.53
2022-10-20T02:11:42.792Z,3.60
2022-10-20T02:14:10.997Z,3.57
2022-10-20T02:16:48.547Z,3.93
2022-10-20T02:19:16.203Z,3.63
2022-10-20T02:21:42.674Z,3.60
2022-10-20T02:24:09.467Z,3.97
2022-10-20T02:26:37.339Z,3.13
2022-10-20T02:29:09.155Z,3.60
2022-10-20T02:31:35.646Z,3.60
2022-10-20T02:34:02.196Z,3.80
2022-10-20T02:36:28.962Z,3.90
2022-10-20T02:38:55.530Z,3.57
2022-10-20T02:41:22.076Z,3.63
2022-10-20T02:43:48.628Z,3.70
2022-10-20T02:46:17.027Z,3.60
2022-10-20T02:48:43.799Z,3.50
2022-10-20T02:51:10.302Z,3.50
2022-10-20T02:53:36.802Z,4.17
2022-10-20T02:56:03.323Z,3.93
2022-10-20T02:58:29.823Z,3.17
2022-10-20T03:00:56.299Z,3.03
2022-10-20T03:03:22.790Z,3.63
2022-10-20T03:05:49.285Z,3.90
2022-10-20T03:08:15.935Z,3.57
2022-10-20T03:10:42.823Z,4.03
2022-10-20T03:13:10.338Z,3.50
2022-10-20T03:15:38.268Z,3.80
2022-10-20T03:18:04.866Z,3.80
2022-10-20T03:20:31.407Z,3.07
2022-10-20T03:22:57.875Z,3.90
2022-10-20T03:25:24.408Z,3.77
2022-10-20T03:27:50.884Z,3.70
2022-10-20T03:30:17.638Z,3.60
2022-10-20T03:32:44.171Z,3.60
2022-10-20T03:35:10.675Z,3.80
2022-10-20T03:37:37.175Z,3.60
2022-10-20T03:40:03.887Z,3.63
2022-10-20T03:42:30.519Z,3.60
2022-10-20T03:44:56.980Z,3.50
2022-10-20T03:47:23.478Z,3.47
2022-10-20T03:49:49.947Z,3.90
2022-10-20T03:52:16.476Z,3.80
2022-10-20T03:54:42.939Z,3.60
2022-10-20T03:57:09.502Z,3.53
2022-10-20T03:59:36.017Z,3.90
2022-10-20T04:02:02.610Z,3.83
2022-10-20T04:04:29.235Z,3.60
2022-10-20T04:06:55.739Z,3.40
2022-10-20T04:09:22.219Z,3.60
2022-10-20T04:11:48.711Z,3.63
2022-10-20T04:14:15.200Z,3.27
2022-10-20T04:16:42.088Z,3.70
2022-10-20T04:19:08.591Z,3.30
2022-10-20T04:21:35.077Z,3.70
2022-10-20T04:24:01.551Z,3.57
2022-10-20T04:26:28.075Z,3.80
2022-10-20T04:28:56.835Z,3.50
2022-10-20T04:31:23.338Z,4.07
2022-10-20T04:33:49.815Z,3.50
2022-10-20T04:36:16.344Z,3.50
2022-10-20T04:38:42.887Z,3.57
2022-10-20T04:41:09.919Z,3.77
2022-10-20T04:43:36.387Z,3.90
2022-10-20T04:46:07.172Z,3.43
2022-10-20T04:48:35.675Z,3.47
2022-10-20T04:51:02.995Z,3.40
2022-10-20T04:53:29.530Z,3.60
2022-10-20T04:55:56.884Z,3.60
2022-10-20T04:58:23.550Z,3.63
2022-10-20T05:00:50.320Z,4.50
2022-10-20T05:03:16.949Z,6.17
2022-10-20T05:05:43.469Z,6.80
2022-10-20T05:08:09.972Z,7.67
2022-10-20T05:10:36.812Z,10.97
2022-10-20T05:13:03.399Z,8.80
2022-10-20T05:15:29.931Z,7.57
2022-10-20T05:17:56.452Z,7.00
2022-10-20T05:20:22.938Z,7.30
2022-10-20T05:22:49.406Z,7.57
2022-10-20T05:25:35.505Z,7.27
2022-10-20T05:28:02.418Z,6.30
2022-10-20T05:30:28.944Z,6.57
2022-10-20T05:32:55.495Z,6.07
2022-10-20T05:35:21.971Z,6.67
2022-10-20T05:37:48.480Z,5.43
2022-10-20T05:40:14.950Z,7.97
2022-10-20T05:42:41.435Z,6.10
2022-10-20T05:45:08.866Z,6.07
2022-10-20T05:47:35.411Z,7.10
2022-10-20T05:50:01.940Z,6.10
2022-10-20T05:52:28.423Z,8.93
2022-10-20T05:54:54.971Z,8.67
2022-10-20T05:57:21.452Z,7.77
2022-10-20T05:59:48.022Z,6.97
2022-10-20T06:02:14.523Z,7.03
2022-10-20T06:04:41.023Z,10.67
2022-10-20T06:07:09.915Z,11.03
2022-10-20T06:09:36.911Z,9.23
2022-10-20T06:12:03.770Z,6.03
2022-10-20T06:14:30.386Z,7.50
2022-10-20T06:16:56.920Z,5.73
2022-10-20T06:19:24.104Z,10.37
2022-10-20T06:21:50.912Z,10.70
2022-10-20T06:24:17.736Z,10.07
2022-10-20T06:26:44.306Z,8.70
2022-10-20T06:29:12.193Z,8.73
2022-10-20T06:31:48.928Z,7.30
2022-10-20T06:34:17.223Z,10.37
2022-10-20T06:36:44.033Z,6.67
2022-10-20T06:39:12.635Z,7.47
2022-10-20T06:41:39.286Z,6.80
2022-10-20T06:44:07.056Z,6.60
2022-10-20T06:46:35.425Z,8.10
2022-10-20T06:49:06.620Z,7.27
2022-10-20T06:51:33.453Z,7.20
2022-10-20T06:54:00.264Z,6.60
2022-10-20T06:56:28.958Z,7.00
2022-10-20T06:58:56.202Z,12.17
2022-10-20T07:01:24.107Z,7.23
2022-10-20T07:03:53.056Z,7.57
2022-10-20T07:06:21.135Z,6.10
2022-10-20T07:08:47.769Z,8.40
2022-10-20T07:11:16.062Z,6.33
2022-10-20T07:13:43.042Z,8.77
2022-10-20T07:16:11.708Z,5.57
2022-10-20T07:18:38.229Z,6.07
2022-10-20T07:21:09.448Z,8.07
2022-10-20T07:23:36.096Z,6.33
2022-10-20T07:26:08.899Z,5.97
2022-10-20T07:28:35.978Z,5.37
2022-10-20T07:31:06.709Z,5.47
2022-10-20T07:33:33.234Z,5.37
2022-10-20T07:35:59.763Z,5.50
2022-10-20T07:38:26.256Z,5.77
2022-10-20T07:40:52.763Z,6.33
2022-10-20T07:43:19.374Z,7.00
2022-10-20T07:45:45.837Z,5.93
2022-10-20T07:48:12.391Z,5.30
2022-10-20T07:50:40.236Z,5.80
2022-10-20T07:53:06.715Z,5.50
2022-10-20T07:55:38.964Z,5.93
2022-10-20T07:58:05.960Z,5.20
2022-10-20T08:00:32.518Z,4.80
2022-10-20T08:02:59.063Z,6.53
2022-10-20T08:05:26.734Z,4.97
2022-10-20T08:07:53.247Z,6.00
2022-10-20T08:10:19.999Z,5.77
2022-10-20T08:12:46.534Z,4.70
2022-10-20T08:15:13.077Z,4.70
2022-10-20T08:17:39.619Z,5.73
2022-10-20T08:20:15.168Z,4.97
2022-10-20T08:22:41.652Z,4.70
2022-10-20T08:25:10.647Z,4.93
2022-10-20T08:27:37.144Z,4.60
2022-10-20T08:30:22.785Z,4.57
2022-10-20T08:32:53.784Z,8.27
2022-10-20T08:35:21.251Z,6.23
2022-10-20T08:37:47.812Z,4.53
2022-10-20T08:40:21.640Z,4.37
2022-10-20T08:42:48.235Z,4.47
2022-10-20T08:45:16.999Z,4.67
2022-10-20T08:47:43.494Z,5.43
2022-10-20T08:50:11.163Z,10.20
2022-10-20T08:52:40.221Z,5.13
2022-10-20T08:55:07.582Z,6.00
2022-10-20T08:57:36.394Z,4.67
2022-10-20T09:00:22.758Z,4.77
2022-10-20T09:02:50.179Z,4.63
2022-10-20T09:05:19.232Z,5.37
2022-10-20T09:07:48.371Z,4.10
2022-10-20T09:10:32.263Z,5.63
2022-10-20T09:12:58.968Z,4.20
2022-10-20T09:15:26.863Z,4.60
2022-10-20T09:18:00.307Z,5.03
2022-10-20T09:20:56.580Z,4.10
2022-10-20T09:23:44.678Z,4.20
2022-10-20T09:26:30.594Z,5.23
2022-10-20T09:29:14.226Z,4.30
2022-10-20T09:31:44.919Z,3.93
2022-10-20T09:34:28.539Z,4.27
2022-10-20T09:37:06.919Z,3.53
2022-10-20T09:40:03.735Z,4.73
2022-10-20T09:42:37.246Z,4.67
2022-10-20T09:45:28.696Z,6.27
2022-10-20T09:48:19.579Z,3.97
2022-10-20T09:50:48.075Z,3.67
2022-10-20T09:53:21.620Z,6.57
2022-10-20T09:55:49.088Z,4.10
2022-10-20T09:58:23.225Z,6.43
2022-10-20T10:01:03.617Z,5.47
2022-10-20T10:04:01.889Z,3.37
2022-10-20T10:06:37.500Z,3.97
2022-10-20T10:09:22.090Z,3.60
2022-10-20T10:11:48.631Z,3.47
2022-10-20T10:14:22.067Z,3.53
2022-10-20T10:16:48.564Z,5.10
2022-10-20T10:19:19.676Z,3.30
2022-10-20T10:21:59.564Z,4.83
2022-10-20T10:24:47.965Z,3.80
2022-10-20T10:27:31.576Z,3.97
2022-10-20T10:30:16.932Z,4.07
2022-10-20T10:32:43.863Z,4.17
2022-10-20T10:35:29.365Z,3.70
2022-10-20T10:37:55.857Z,4.13
2022-10-20T10:40:33.662Z,4.40
2022-10-20T10:43:06.349Z,3.30
2022-10-20T10:45:38.581Z,4.77
2022-10-20T10:48:18.959Z,3.60
2022-10-20T10:51:00.559Z,3.13
2022-10-20T10:54:06.950Z,3.20
2022-10-20T10:56:46.431Z,3.77
2022-10-20T10:59:27.523Z,3.33
2022-10-20T11:02:34.418Z,4.70
2022-10-20T11:05:51.760Z,3.53
2022-10-20T11:08:33.848Z,3.57
2022-10-20T11:11:22.135Z,3.27
2022-10-20T11:14:10.109Z,3.37
2022-10-20T11:17:09.980Z,3.10
2022-10-20T11:19:51.716Z,4.20
2022-10-20T11:22:37.951Z,3.23
2022-10-20T11:25:27.900Z,3.30
2022-10-20T11:27:55.255Z,3.40
2022-10-20T11:30:22.300Z,3.10
2022-10-20T11:32:59.137Z,3.00
2022-10-20T11:35:51.714Z,3.00
2022-10-20T11:38:41.327Z,3.20
2022-10-20T11:41:32.452Z,3.20
2022-10-20T11:44:07.614Z,2.90
2022-10-20T11:46:51.799Z,3.10
2022-10-20T11:49:18.503Z,3.27
2022-10-20T11:52:29.412Z,2.90
2022-10-20T11:55:07.409Z,3.10
2022-10-20T11:58:01.325Z,3.17
2022-10-20T12:00:55.108Z,3.10
2022-10-20T12:03:29.759Z,2.97
2022-10-20T12:06:18.196Z,4.63
2022-10-20T12:09:03.491Z,2.97
2022-10-20T12:11:47.488Z,3.17
2022-10-20T12:14:23.063Z,2.73
2022-10-20T12:16:52.988Z,3.00
2022-10-20T12:19:20.232Z,2.90
2022-10-20T12:22:02.399Z,3.10
2022-10-20T12:24:38.822Z,3.40
2022-10-20T12:27:08.289Z,2.90
2022-10-20T12:29:34.671Z,2.70
2022-10-20T12:32:25.971Z,2.70
2022-10-20T12:35:00.142Z,3.10
2022-10-20T12:37:33.827Z,3.20
2022-10-20T12:40:18.764Z,2.80
2022-10-20T12:42:49.297Z,3.00
2022-10-20T12:45:18.820Z,3.23
2022-10-20T12:47:52.449Z,3.43
2022-10-20T12:50:24.729Z,3.13
2022-10-20T12:52:51.245Z,2.63
2022-10-20T12:55:19.809Z,3.13
2022-10-20T12:57:46.603Z,2.83
2022-10-20T13:00:18.900Z,2.70
2022-10-20T13:02:57.865Z,2.60
2022-10-20T13:05:41.787Z,2.80
2022-10-20T13:08:22.912Z,2.53
2022-10-20T13:10:49.400Z,2.83
2022-10-20T13:13:18.714Z,2.80
2022-10-20T13:15:47.525Z,3.03
2022-10-20T13:18:15.965Z,2.87
2022-10-20T13:20:53.014Z,2.83
2022-10-20T13:23:37.728Z,2.87
2022-10-20T13:26:17.059Z,2.80
2022-10-20T13:28:47.963Z,2.73
2022-10-20T13:31:37.635Z,2.97
2022-10-20T13:34:27.354Z,2.73
2022-10-20T13:37:08.023Z,2.90
2022-10-20T13:39:56.362Z,7.57
2022-10-20T13:42:38.266Z,10.67
2022-10-20T13:45:42.201Z,6.80
2022-10-20T13:48:17.198Z,7.67
2022-10-20T13:50:53.883Z,6.30
2022-10-20T13:53:26.028Z,4.50
2022-10-20T13:55:57.423Z,5.53
2022-10-20T13:58:24.366Z,7.87
2022-10-20T14:01:12.416Z,5.33
2022-10-20T14:03:45.826Z,8.73
2022-10-20T14:06:27.678Z,9.03
2022-10-20T14:08:55.071Z,6.17
2022-10-20T14:11:21.537Z,4.37
2022-10-20T14:13:48.029Z,3.70
2022-10-20T14:16:21.792Z,3.87
2022-10-20T14:19:12.613Z,4.67
2022-10-20T14:21:44.054Z,3.07
2022-10-20T14:24:32.752Z,4.87
2022-10-20T14:27:00.741Z,3.17
2022-10-20T14:29:35.031Z,2.90
2022-10-20T14:32:01.495Z,3.53
2022-10-20T14:34:28.990Z,3.23
2022-10-20T14:36:55.518Z,3.73
2022-10-20T14:39:38.670Z,3.93
2022-10-20T14:42:17.088Z,2.60
2022-10-20T14:44:43.791Z,4.30
2022-10-20T14:47:10.531Z,3.47
2022-10-20T14:49:38.191Z,3.70
2022-10-20T14:52:19.062Z,2.87
2022-10-20T14:54:48.659Z,3.80
2022-10-20T14:57:15.024Z,3.10
2022-10-20T14:59:59.172Z,3.03
2022-10-20T15:02:27.240Z,3.63
2022-10-20T15:04:53.802Z,3.63
2022-10-20T15:07:22.968Z,2.57
2022-10-20T15:10:04.148Z,2.67
2022-10-20T15:12:42.846Z,2.50
2022-10-20T15:15:12.300Z,2.67
2022-10-20T15:17:40.078Z,3.37
2022-10-20T15:20:34.709Z,2.67
2022-10-20T15:23:11.969Z,2.57
2022-10-20T15:25:48.236Z,2.60
2022-10-20T15:28:33.991Z,2.67
2022-10-20T15:31:00.806Z,2.50
2022-10-20T15:33:27.392Z,2.30
2022-10-20T15:35:54.170Z,2.50
2022-10-20T15:38:20.652Z,2.60
2022-10-20T15:40:47.288Z,2.60
2022-10-20T15:43:15.217Z,2.40
2022-10-20T15:45:44.381Z,2.53
2022-10-20T15:48:11.023Z,2.50
2022-10-20T15:50:38.029Z,2.57
2022-10-20T15:53:04.622Z,2.40
2022-10-20T15:55:35.433Z,2.47
2022-10-20T15:58:01.943Z,2.47
2022-10-20T16:00:28.891Z,2.60
2022-10-20T16:02:55.600Z,2.30
2022-10-20T16:05:25.627Z,2.30
2022-10-20T16:07:54.988Z,2.50
2022-10-20T16:10:26.128Z,2.23
2022-10-20T16:12:52.625Z,2.50
2022-10-20T16:15:19.197Z,3.03
2022-10-20T16:17:46.215Z,5.37
2022-10-20T16:20:13.279Z,4.77
2022-10-20T16:22:40.091Z,4.73
2022-10-20T16:25:07.119Z,6.10
2022-10-20T16:27:33.817Z,6.70
2022-10-20T16:30:00.900Z,4.00
2022-10-20T16:32:32.797Z,3.63
2022-10-20T16:35:02.044Z,7.20
2022-10-20T16:37:28.736Z,3.73
2022-10-20T16:39:55.276Z,3.23
2022-10-20T16:42:21.779Z,2.70
2022-10-20T16:44:48.247Z,4.50
2022-10-20T16:47:14.807Z,4.07
2022-10-20T16:49:41.375Z,2.47
2022-10-20T16:52:08.439Z,2.97
2022-10-20T16:54:36.208Z,2.77
2022-10-20T16:57:02.805Z,3.47
2022-10-20T16:59:29.406Z,3.50
2022-10-20T17:01:55.906Z,4.67
2022-10-20T17:04:24.034Z,2.97
2022-10-20T17:06:50.677Z,3.07
2022-10-20T17:09:17.220Z,2.40
2022-10-20T17:11:43.703Z,2.73
2022-10-20T17:14:10.207Z,2.80
2022-10-20T17:16:39.199Z,2.50
2022-10-20T17:19:05.871Z,2.40
2022-10-20T17:21:32.603Z,2.53
2022-10-20T17:23:59.138Z,2.73
2022-10-20T17:26:26.585Z,3.17
2022-10-20T17:29:00.016Z,3.77
2022-10-20T17:31:26.559Z,2.60
2022-10-20T17:33:53.138Z,2.40
2022-10-20T17:36:25.722Z,2.57
2022-10-20T17:38:56.610Z,4.77
2022-10-20T17:41:23.398Z,2.53
2022-10-20T17:43:49.968Z,2.20
2022-10-20T17:46:17.732Z,3.00
2022-10-20T17:48:44.260Z,2.50
2022-10-20T17:51:19.425Z,4.87
2022-10-20T17:53:47.972Z,2.30
2022-10-20T17:56:18.938Z,2.47
2022-10-20T17:58:46.362Z,3.03
2022-10-20T18:01:13.969Z,2.10
2022-10-20T18:03:40.847Z,2.20
2022-10-20T18:06:09.087Z,2.90
2022-10-20T18:08:35.669Z,2.47
2022-10-20T18:11:02.218Z,2.40
2022-10-20T18:13:28.695Z,2.20
2022-10-20T18:15:55.234Z,2.50
2022-10-20T18:18:21.752Z,2.23
2022-10-20T18:20:57.484Z,2.13
2022-10-20T18:23:24.030Z,2.27
2022-10-20T18:25:50.525Z,4.60
2022-10-20T18:30:48.537Z,3.07
2022-10-20T18:33:15.096Z,2.37
2022-10-20T18:35:41.619Z,3.33
2022-10-20T18:38:08.117Z,4.10
2022-10-20T18:40:34.665Z,2.33
2022-10-20T18:43:01.165Z,2.10
2022-10-20T18:45:27.794Z,2.10
2022-10-20T18:47:54.262Z,2.30
2022-10-20T18:50:20.771Z,3.13
2022-10-20T18:52:47.762Z,3.77
2022-10-20T18:55:14.318Z,3.40
2022-10-20T18:57:41.311Z,2.40
2022-10-20T19:00:08.695Z,3.50
2022-10-20T19:02:35.536Z,2.67
2022-10-20T19:05:03.219Z,2.00
2022-10-20T19:07:32.385Z,2.00
2022-10-20T19:09:59.064Z,2.37
2022-10-20T19:12:25.573Z,2.40
2022-10-20T19:14:52.147Z,2.00
2022-10-20T19:17:18.651Z,2.67
2022-10-20T19:19:46.467Z,3.87
2022-10-20T19:22:13.018Z,2.30
2022-10-20T19:24:40.620Z,2.43
2022-10-20T19:27:25.551Z,2.97
2022-10-20T19:29:53.372Z,2.03
2022-10-20T19:32:19.874Z,2.33
2022-10-20T19:34:46.403Z,2.30
2022-10-20T19:37:12.874Z,1.97
2022-10-20T19:39:40.549Z,3.77
2022-10-20T19:42:07.374Z,2.00
2022-10-20T19:44:34.057Z,2.60
2022-10-20T19:47:00.572Z,2.23
2022-10-20T19:49:27.411Z,2.60
2022-10-20T19:51:53.971Z,2.43
2022-10-20T19:54:20.488Z,2.27
2022-10-20T19:56:46.955Z,2.00
2022-10-20T19:59:13.590Z,3.50
2022-10-20T20:01:40.110Z,2.50
2022-10-20T20:04:06.744Z,2.40
2022-10-20T20:06:33.576Z,2.50
2022-10-20T20:09:01.046Z,2.43
2022-10-20T20:11:29.621Z,2.10
2022-10-20T20:14:10.434Z,3.40
2022-10-20T20:16:36.984Z,2.53
2022-10-20T20:19:03.691Z,2.20
2022-10-20T20:21:30.171Z,2.07
2022-10-20T20:24:00.153Z,1.80
2022-10-20T20:26:27.813Z,2.77
2022-10-20T20:28:54.649Z,1.90
2022-10-20T20:31:21.388Z,2.17
2022-10-20T20:33:47.906Z,2.00
2022-10-20T20:36:14.383Z,1.90
2022-10-20T20:38:41.758Z,2.23
2022-10-20T20:41:11.389Z,2.13
2022-10-20T20:43:37.887Z,2.20
2022-10-20T20:46:05.435Z,2.17
2022-10-20T20:48:31.935Z,2.53
2022-10-20T20:50:58.556Z,2.30
2022-10-20T20:53:25.081Z,2.23
2022-10-20T20:55:55.168Z,2.03
2022-10-20T20:58:21.797Z,2.30
2022-10-20T21:00:48.699Z,1.90
2022-10-20T21:03:15.239Z,2.37
2022-10-20T21:05:41.745Z,2.10
2022-10-20T21:08:08.264Z,3.37
2022-10-20T21:10:37.664Z,2.27
2022-10-20T21:13:04.187Z,2.40
2022-10-20T21:15:30.683Z,1.73
2022-10-20T21:17:57.193Z,2.27
2022-10-20T21:20:23.673Z,2.23
2022-10-20T21:22:50.203Z,2.40
2022-10-20T21:25:16.744Z,2.10
2022-10-20T21:27:43.247Z,2.30
2022-10-20T21:30:10.059Z,2.60
2022-10-20T21:32:36.786Z,2.30
2022-10-20T21:35:03.500Z,2.10
2022-10-20T21:37:30.003Z,2.40
2022-10-20T21:39:56.484Z,2.07
2022-10-20T21:42:22.959Z,2.10
2022-10-20T21:44:50.151Z,2.50
2022-10-20T21:47:16.623Z,2.30
2022-10-20T21:49:43.190Z,2.33
2022-10-20T21:52:09.689Z,2.60
2022-10-20T21:54:36.167Z,2.50
2022-10-20T21:57:02.936Z,2.30
2022-10-20T21:59:30.120Z,3.43
2022-10-20T22:02:00.461Z,2.00
2022-10-20T22:04:28.542Z,2.20
2022-10-20T22:06:55.170Z,2.10
2022-10-20T22:09:21.943Z,2.00
2022-10-20T22:11:55.294Z,2.40
2022-10-20T22:14:22.392Z,2.30
2022-10-20T22:16:48.874Z,2.27
2022-10-20T22:19:19.895Z,2.17
2022-10-20T22:21:47.219Z,2.30
2022-10-20T22:24:13.903Z,2.10
2022-10-20T22:26:40.565Z,2.20
2022-10-20T22:29:09.443Z,2.50
2022-10-20T22:31:36.888Z,2.10
2022-10-20T22:34:03.543Z,2.13
2022-10-20T22:36:30.072Z,2.10
2022-10-20T22:38:56.608Z,2.40
2022-10-20T22:41:23.212Z,2.20
2022-10-20T22:43:49.744Z,2.40
2022-10-20T22:46:16.296Z,2.20
2022-10-20T22:48:42.847Z,2.20
2022-10-20T22:51:09.840Z,2.07
2022-10-20T22:53:36.947Z,2.50
2022-10-20T22:56:11.248Z,2.40
2022-10-20T22:58:38.090Z,2.40
2022-10-20T23:01:16.192Z,2.53
2022-10-20T23:03:42.823Z,2.70
2022-10-20T23:06:13.201Z,2.27
2022-10-20T23:08:44.366Z,2.30
2022-10-20T23:11:11.110Z,2.40
2022-10-20T23:13:37.743Z,2.20
2022-10-20T23:16:04.426Z,2.13
2022-10-20T23:18:30.968Z,2.30
2022-10-20T23:20:58.295Z,2.20
2022-10-20T23:23:25.130Z,2.37
2022-10-20T23:25:51.657Z,2.40
2022-10-20T23:28:18.580Z,2.30
2022-10-20T23:30:45.105Z,2.83
2022-10-20T23:33:11.618Z,2.30
2022-10-20T23:35:38.287Z,2.57
2022-10-20T23:38:05.142Z,2.27
2022-10-20T23:40:31.635Z,2.40
2022-10-20T23:42:58.142Z,2.20
2022-10-20T23:45:24.636Z,2.13
2022-10-20T23:47:51.135Z,2.37
2022-10-20T23:50:20.944Z,2.30
2022-10-20T23:52:47.981Z,2.50
2022-10-20T23:55:15.629Z,2.13
2022-10-20T23:57:42.340Z,2.40
